Time;durP1;ratioP1;P1;durP2;ratioP2;P2;SDS_P1;SDS_P2;PMS_P1;PMS_P2;Temp;Humidity;BMP_temperature;BMP_pressure;BME280_temperature;BME280_humidity;BME280_pressure;Samples;Min_cycle;Max_cycle;Signal;HPM_P1;HPM_P2
2024/04/06 00:00:30;;;;;;;4.95;1.90;;;;;;;10.80;100.00;93101.31;2082853;28;20044;-87
2024/04/06 00:01:31;;;;;;;2.90;1.73;;;;;;;10.77;100.00;93096.06;2091607;28;20021;-86
2024/04/06 00:02:32;;;;;;;3.70;2.00;;;;;;;10.77;100.00;93101.41;2090128;28;20029;-87
2024/04/06 00:03:33;;;;;;;4.22;1.67;;;;;;;10.77;100.00;93104.81;2085014;28;20047;-88
2024/04/06 00:04:36;;;;;;;4.20;1.80;;;;;;;10.86;100.00;93101.56;2098260;28;20491;-88
2024/04/06 00:05:37;;;;;;;6.07;1.65;;;;;;;10.64;100.00;93100.56;2095781;28;20020;-88
2024/04/06 00:06:47;;;;;;;4.97;1.80;;;;;;;10.75;100.00;93098.38;2077432;28;20029;-87
2024/04/06 00:07:48;;;;;;;4.45;1.52;;;;;;;10.63;100.00;93099.06;2084607;28;20037;-87
2024/04/06 00:08:50;;;;;;;6.22;1.50;;;;;;;10.55;100.00;93098.44;2082289;28;20029;-88
2024/04/06 00:09:51;;;;;;;5.78;1.90;;;;;;;10.59;100.00;93094.53;2076699;28;20155;-86
2024/04/06 00:10:51;;;;;;;5.47;1.60;;;;;;;10.59;100.00;93099.88;2082161;28;20021;-87
2024/04/06 00:11:52;;;;;;;2.58;1.85;;;;;;;10.64;100.00;93103.97;2090267;28;20025;-86
2024/04/06 00:12:53;;;;;;;4.00;1.65;;;;;;;10.48;100.00;93095.91;2081954;28;20122;-90
2024/04/06 00:13:55;;;;;;;2.42;1.77;;;;;;;10.63;100.00;93099.81;2090604;28;20060;-89
2024/04/06 00:14:56;;;;;;;3.40;1.52;;;;;;;10.53;100.00;93098.84;2089066;28;20033;-88
2024/04/06 00:15:56;;;;;;;2.25;1.50;;;;;;;10.53;100.00;93096.19;2082324;28;20025;-87
2024/04/06 00:16:57;;;;;;;2.35;1.42;;;;;;;10.57;100.00;93104.88;2090544;28;20036;-88
2024/04/06 00:17:58;;;;;;;3.63;1.90;;;;;;;10.57;100.00;93099.53;2092513;28;20025;-84
2024/04/06 00:19:00;;;;;;;2.63;1.60;;;;;;;10.72;100.00;93102.66;2090139;28;20409;-89
2024/04/06 00:20:03;;;;;;;2.33;1.50;;;;;;;10.58;100.00;93103.72;2098966;28;20082;-88
2024/04/06 00:21:06;;;;;;;1.98;1.42;;;;;;;10.74;100.00;93100.31;2098335;28;20107;-87
2024/04/06 00:22:07;;;;;;;5.30;2.10;;;;;;;10.71;100.00;93103.06;2082325;28;20433;-88
2024/04/06 00:23:07;;;;;;;3.88;1.98;;;;;;;10.55;100.00;93099.19;2082279;28;20053;-88
2024/04/06 00:24:08;;;;;;;3.35;1.70;;;;;;;10.60;100.00;93100.63;2085234;28;20024;-88
2024/04/06 00:25:09;;;;;;;4.82;1.83;;;;;;;10.54;100.00;93096.94;2090293;28;20028;-88
2024/04/06 00:26:10;;;;;;;6.53;2.20;;;;;;;10.53;100.00;93092.75;2081943;28;20058;-87
2024/04/06 00:27:11;;;;;;;6.10;1.92;;;;;;;10.38;100.00;93097.66;2082103;28;20483;-87
2024/04/06 00:28:12;;;;;;;2.20;1.70;;;;;;;10.37;100.00;93104.19;2103929;28;20484;-91
2024/04/06 00:29:13;;;;;;;2.83;1.67;;;;;;;10.45;100.00;93094.09;2104376;28;20047;-91
2024/04/06 00:30:14;;;;;;;6.05;1.90;;;;;;;10.48;100.00;93087.91;2089994;28;20059;-87
2024/04/06 00:31:15;;;;;;;2.92;1.80;;;;;;;10.40;100.00;93092.66;2093300;28;20052;-87
2024/04/06 00:32:16;;;;;;;3.70;1.80;;;;;;;10.55;100.00;93098.44;2090369;28;20442;-88
2024/04/06 00:33:17;;;;;;;3.60;1.95;;;;;;;10.65;100.00;93099.38;2090187;28;20123;-91
2024/04/06 00:34:18;;;;;;;4.25;1.80;;;;;;;10.58;100.00;93100.31;2090472;28;20476;-88
2024/04/06 00:35:19;;;;;;;3.53;1.27;;;;;;;10.48;100.00;93107.34;2090887;28;20021;-88
2024/04/06 00:36:20;;;;;;;4.20;1.60;;;;;;;10.47;100.00;93105.13;2098705;28;20043;-87
2024/04/06 00:37:21;;;;;;;6.40;1.80;;;;;;;10.43;100.00;93097.16;2098211;28;20028;-91
2024/04/06 00:38:22;;;;;;;2.70;1.95;;;;;;;10.26;100.00;93103.63;2098676;28;20111;-90
2024/04/06 00:39:23;;;;;;;6.35;1.98;;;;;;;10.24;100.00;93100.59;2090391;28;20029;-91
2024/04/06 00:40:24;;;;;;;3.85;1.90;;;;;;;10.34;100.00;93105.00;2081864;28;20025;-89
2024/04/06 00:41:25;;;;;;;6.05;2.00;;;;;;;9.99;100.00;93104.53;2098642;28;20115;-90
2024/04/06 00:42:26;;;;;;;5.15;2.00;;;;;;;10.02;100.00;93105.63;2105847;28;20224;-90
2024/04/06 00:43:28;;;;;;;5.55;1.63;;;;;;;10.15;100.00;93098.50;2086304;28;20486;-89
2024/04/06 00:44:29;;;;;;;2.67;1.80;;;;;;;9.86;100.00;93105.56;2082020;28;20029;-88
2024/04/06 00:45:30;;;;;;;2.90;1.90;;;;;;;10.14;100.00;93101.56;2081635;28;20025;-89
2024/04/06 00:46:31;;;;;;;3.53;1.73;;;;;;;10.22;100.00;93101.00;2098376;28;20020;-88
2024/04/06 00:47:32;;;;;;;5.00;2.13;;;;;;;10.15;100.00;93103.09;2084588;28;20021;-89
2024/04/06 00:48:33;;;;;;;2.92;1.40;;;;;;;10.09;100.00;93100.13;2093982;28;20029;-89
2024/04/06 00:49:34;;;;;;;2.97;1.90;;;;;;;9.93;100.00;93095.50;2106706;28;20027;-89
2024/04/06 00:50:36;;;;;;;2.92;1.80;;;;;;;9.67;100.00;93096.38;2098299;28;20027;-89
2024/04/06 00:51:36;;;;;;;5.65;1.73;;;;;;;9.71;100.00;93094.41;2089558;28;20206;-88
2024/04/06 00:52:38;;;;;;;2.90;1.80;;;;;;;9.69;100.00;93102.81;2106657;28;20070;-87
2024/04/06 00:53:40;;;;;;;3.42;1.60;;;;;;;9.80;100.00;93099.94;2091351;28;20480;-88
2024/04/06 00:54:41;;;;;;;5.15;1.80;;;;;;;9.76;100.00;93110.69;2098001;28;20113;-90
2024/04/06 00:55:42;;;;;;;4.63;1.85;;;;;;;9.72;100.00;93095.91;2083021;28;20112;-88
2024/04/06 00:56:43;;;;;;;5.07;1.92;;;;;;;10.07;100.00;93108.56;2096738;28;20083;-89
2024/04/06 00:57:44;;;;;;;3.20;2.13;;;;;;;9.93;100.00;93108.84;2098671;28;20036;-90
2024/04/06 00:58:45;;;;;;;2.05;1.70;;;;;;;9.63;100.00;93109.03;2098466;28;20058;-89
2024/04/06 00:59:46;;;;;;;2.75;1.50;;;;;;;9.76;100.00;93107.28;2098565;28;20098;-89
2024/04/06 01:00:47;;;;;;;2.45;1.42;;;;;;;9.66;100.00;93105.53;2081988;28;20033;-89
2024/04/06 01:01:48;;;;;;;6.30;2.28;;;;;;;9.68;100.00;93108.56;2075970;28;20094;-90
2024/04/06 01:02:50;;;;;;;3.13;1.50;;;;;;;9.62;100.00;93105.63;2090188;28;20024;-88
2024/04/06 01:03:51;;;;;;;2.80;1.70;;;;;;;9.46;100.00;93106.28;2089967;28;20025;-89
2024/04/06 01:04:52;;;;;;;2.75;1.63;;;;;;;9.54;100.00;93109.56;2084874;28;20021;-90
2024/04/06 01:05:55;;;;;;;5.00;2.05;;;;;;;9.64;100.00;93115.88;2081909;28;20119;-88
2024/04/06 01:06:56;;;;;;;4.03;1.70;;;;;;;9.58;100.00;93116.34;2082079;28;20025;-88
2024/04/06 01:07:58;;;;;;;3.38;1.48;;;;;;;9.26;100.00;93108.91;2081129;28;20029;-88
2024/04/06 01:08:59;;;;;;;4.03;1.58;;;;;;;9.34;100.00;93107.63;2081982;28;20546;-87
2024/04/06 01:10:00;;;;;;;3.17;1.40;;;;;;;9.43;100.00;93109.00;2084645;28;20017;-89
2024/04/06 01:11:01;;;;;;;3.08;1.50;;;;;;;9.20;100.00;93113.19;2098217;28;20075;-90
2024/04/06 01:12:02;;;;;;;5.22;1.50;;;;;;;9.24;100.00;93105.88;2098153;28;20021;-88
2024/04/06 01:13:03;;;;;;;3.55;1.30;;;;;;;9.42;100.00;93110.91;2097965;28;20103;-90
2024/04/06 01:14:05;;;;;;;2.97;1.38;;;;;;;9.32;100.00;93114.53;2106401;28;20020;-89
2024/04/06 01:15:06;;;;;;;2.80;1.45;;;;;;;9.38;100.00;93112.91;2089968;28;20017;-88
2024/04/06 01:16:07;;;;;;;2.08;1.40;;;;;;;9.50;100.00;93103.56;2081523;28;20124;-88
2024/04/06 01:17:10;;;;;;;2.00;1.73;;;;;;;9.42;100.00;93107.50;2081696;28;20493;-92
2024/04/06 01:18:11;;;;;;;4.90;1.60;;;;;;;9.25;100.00;93106.63;2089942;28;20025;-90
2024/04/06 01:19:12;;;;;;;3.90;1.67;;;;;;;9.25;100.00;93110.06;2090018;28;20028;-89
2024/04/06 01:20:13;;;;;;;3.20;1.70;;;;;;;9.20;100.00;93107.88;2089917;28;20351;-89
2024/04/06 01:21:15;;;;;;;3.50;1.50;;;;;;;9.29;100.00;93108.09;2097173;28;20016;-88
2024/04/06 01:22:16;;;;;;;1.70;1.20;;;;;;;9.34;100.00;93102.28;2098266;28;20456;-89
2024/04/06 01:23:17;;;;;;;6.60;1.70;;;;;;;9.37;100.00;93106.06;2098214;28;20028;-88
2024/04/06 01:24:28;;;;;;;3.75;1.50;;;;;;;9.64;100.00;93108.63;2089683;28;20033;-89
2024/04/06 01:25:29;;;;;;;4.55;1.50;;;;;;;9.53;100.00;93103.50;2095883;28;20028;-90
2024/04/06 01:26:30;;;;;;;4.97;1.67;;;;;;;9.51;100.00;93103.13;2111504;27;20035;-89
2024/04/06 01:27:31;;;;;;;1.63;1.30;;;;;;;9.48;100.00;93109.31;2119449;27;20118;-89
2024/04/06 01:28:32;;;;;;;4.18;1.60;;;;;;;9.30;100.00;93106.91;2114983;28;20022;-89
2024/04/06 01:29:33;;;;;;;1.85;1.40;;;;;;;9.34;100.00;93110.28;2106556;28;20494;-89
2024/04/06 01:30:36;;;;;;;1.80;1.40;;;;;;;9.28;100.00;93103.16;2098461;28;20031;-89
2024/04/06 01:31:37;;;;;;;2.65;1.42;;;;;;;9.22;100.00;93104.78;2098640;28;20051;-89
2024/04/06 01:32:48;;;;;;;2.35;1.42;;;;;;;9.19;100.00;93103.69;2106301;28;20020;-90
2024/04/06 01:33:50;;;;;;;4.97;1.58;;;;;;;9.26;100.00;93100.91;2092604;28;20021;-89
2024/04/06 01:34:51;;;;;;;2.85;1.50;;;;;;;9.27;100.00;93097.09;2098074;28;20024;-90
2024/04/06 01:35:52;;;;;;;2.90;1.58;;;;;;;9.32;100.00;93099.28;2106558;28;20028;-89
2024/04/06 01:36:53;;;;;;;2.08;1.30;;;;;;;9.35;100.00;93103.06;2114737;28;20492;-88
2024/04/06 01:37:54;;;;;;;3.67;1.40;;;;;;;9.19;100.00;93093.03;2098121;28;20035;-88
2024/04/06 01:39:09;;;;;;;4.78;1.67;;;;;;;9.13;100.00;93096.56;2098226;28;20046;-90
2024/04/06 01:40:10;;;;;;;3.08;1.45;;;;;;;9.07;100.00;93096.28;2111070;28;20106;-89
2024/04/06 01:41:11;;;;;;;4.60;1.48;;;;;;;9.22;100.00;93099.44;2098072;28;20566;-88
2024/04/06 01:42:12;;;;;;;2.45;1.45;;;;;;;9.23;100.00;93096.38;2096682;28;20020;-89
2024/04/06 01:43:13;;;;;;;2.15;1.45;;;;;;;9.31;100.00;93092.44;2094478;28;20101;-89
2024/04/06 01:44:15;;;;;;;2.58;1.75;;;;;;;9.17;100.00;93099.91;2089656;28;20052;-88
2024/04/06 01:45:15;;;;;;;4.97;1.50;;;;;;;9.16;100.00;93096.50;2092916;28;20108;-91
2024/04/06 01:46:17;;;;;;;4.53;1.73;;;;;;;9.11;100.00;93093.56;2099089;28;20036;-89
2024/04/06 01:47:18;;;;;;;1.73;1.58;;;;;;;9.12;100.00;93095.06;2105779;28;20035;-88
2024/04/06 01:48:18;;;;;;;4.30;1.60;;;;;;;9.11;100.00;93096.97;2102704;28;20040;-90
2024/04/06 01:49:20;;;;;;;3.28;1.45;;;;;;;8.91;100.00;93094.25;2089645;28;20021;-88
2024/04/06 01:50:21;;;;;;;3.58;1.70;;;;;;;9.00;100.00;93091.81;2089711;28;20033;-88
2024/04/06 01:51:22;;;;;;;2.15;1.50;;;;;;;9.00;100.00;93097.16;2089430;28;20032;-90
2024/04/06 01:52:23;;;;;;;2.22;1.50;;;;;;;9.01;100.00;93089.91;2114814;28;20035;-87
2024/04/06 01:53:24;;;;;;;3.67;2.10;;;;;;;9.10;100.00;93082.13;2097890;28;20032;-89
2024/04/06 01:54:25;;;;;;;3.60;1.75;;;;;;;9.05;100.00;93086.03;2088841;28;20486;-87
2024/04/06 01:55:26;;;;;;;2.92;1.60;;;;;;;9.01;100.00;93085.31;2089913;28;20040;-90
2024/04/06 01:56:28;;;;;;;2.85;1.60;;;;;;;9.08;100.00;93093.19;2097485;28;20025;-90
2024/04/06 01:57:29;;;;;;;3.13;1.65;;;;;;;9.20;100.00;93083.13;2097857;28;20063;-89
2024/04/06 01:58:30;;;;;;;3.17;1.65;;;;;;;9.26;100.00;93074.25;2081437;28;20029;-89
2024/04/06 01:59:34;;;;;;;2.90;1.52;;;;;;;9.22;100.00;93078.88;2086461;28;20077;-91
2024/04/06 02:00:35;;;;;;;2.95;1.30;;;;;;;9.16;100.00;93074.41;2082516;28;20029;-89
2024/04/06 02:01:36;;;;;;;1.88;1.40;;;;;;;9.18;100.00;93067.53;2097695;28;20056;-91
2024/04/06 02:02:37;;;;;;;1.73;1.30;;;;;;;9.23;100.00;93074.31;2097881;28;20442;-88
2024/04/06 02:03:39;;;;;;;4.25;1.42;;;;;;;8.99;100.00;93065.56;2097795;28;20120;-90
2024/04/06 02:04:40;;;;;;;2.33;1.40;;;;;;;8.93;100.00;93073.25;2108899;28;20093;-90
2024/04/06 02:05:41;;;;;;;1.80;1.23;;;;;;;9.00;100.00;93073.16;2089590;28;20039;-91
2024/04/06 02:06:42;;;;;;;1.58;1.13;;;;;;;9.04;100.00;93060.53;2089457;28;20024;-90
2024/04/06 02:07:43;;;;;;;2.13;1.40;;;;;;;9.01;100.00;93068.56;2089317;28;20021;-89
2024/04/06 02:08:44;;;;;;;2.97;1.30;;;;;;;8.96;100.00;93069.06;2092262;28;20023;-89
2024/04/06 02:09:45;;;;;;;3.30;1.40;;;;;;;8.93;100.00;93067.94;2097768;28;20032;-87
2024/04/06 02:10:46;;;;;;;2.40;1.10;;;;;;;8.86;100.00;93070.72;2098547;28;20025;-90
2024/04/06 02:11:48;;;;;;;4.68;1.40;;;;;;;8.92;100.00;93074.44;2105894;28;20119;-89
2024/04/06 02:12:50;;;;;;;4.00;1.40;;;;;;;8.90;100.00;93081.31;2090959;28;20024;-88
2024/04/06 02:13:51;;;;;;;1.88;1.30;;;;;;;8.81;100.00;93077.25;2098137;28;20021;-88
2024/04/06 02:14:52;;;;;;;1.98;1.35;;;;;;;8.87;100.00;93074.13;2105965;28;20043;-88
2024/04/06 02:15:54;;;;;;;2.25;1.00;;;;;;;8.82;100.00;93078.00;2105841;28;20039;-90
2024/04/06 02:16:55;;;;;;;3.70;1.70;;;;;;;8.83;100.00;93080.28;2098116;28;20055;-92
2024/04/06 02:17:56;;;;;;;2.00;1.27;;;;;;;8.94;100.00;93090.00;2114301;28;20053;-88
2024/04/06 02:18:57;;;;;;;1.92;1.05;;;;;;;8.87;100.00;93080.22;2105676;28;20031;-89
2024/04/06 02:19:58;;;;;;;1.95;1.35;;;;;;;8.89;100.00;93082.47;2106238;28;20043;-90
2024/04/06 02:20:59;;;;;;;2.95;1.30;;;;;;;8.85;100.00;93082.53;2109253;28;20058;-89
2024/04/06 02:22:22;;;;;;;6.03;1.40;;;;;;;8.83;100.00;93090.19;2106159;28;20028;-89
2024/04/06 02:23:22;;;;;;;4.22;1.70;;;;;;;8.89;100.00;93083.22;2106302;28;20057;-90
2024/04/06 02:24:23;;;;;;;3.38;1.42;;;;;;;8.89;100.00;93083.22;2098069;28;20036;-89
2024/04/06 02:25:24;;;;;;;3.97;1.60;;;;;;;8.93;100.00;93085.84;2106345;28;20085;-89
2024/04/06 02:27:38;;;;;;;;;;;;;;;7.42;100.00;93080.94;2148124;27;20117;-80
2024/04/06 02:28:39;;;;;;;1.67;1.30;;;;;;;7.51;100.00;93089.97;2127673;27;19918;-82
2024/04/06 02:29:40;;;;;;;3.55;1.48;;;;;;;7.50;100.00;93085.03;2120315;27;20435;-83
2024/04/06 02:30:41;;;;;;;4.53;1.45;;;;;;;7.55;100.00;93089.91;2115269;27;20020;-82
2024/04/06 02:31:42;;;;;;;3.85;1.38;;;;;;;7.49;100.00;93094.16;2130163;27;20494;-83
2024/04/06 02:32:43;;;;;;;2.33;1.23;;;;;;;7.34;100.00;93090.91;2123071;27;20375;-80
2024/04/06 02:33:44;;;;;;;1.40;1.27;;;;;;;7.36;100.00;93093.16;2120241;28;20618;-83
2024/04/06 02:34:45;;;;;;;2.45;1.40;;;;;;;7.20;100.00;93085.72;2115925;27;20098;-82
2024/04/06 02:35:46;;;;;;;2.97;1.10;;;;;;;7.23;100.00;93090.25;2127311;27;20092;-85
2024/04/06 02:36:47;;;;;;;2.08;1.50;;;;;;;7.13;100.00;93086.53;2122822;27;20488;-81
2024/04/06 02:37:48;;;;;;;2.70;1.45;;;;;;;7.08;100.00;93084.31;2114984;27;20055;-81
2024/04/06 02:38:49;;;;;;;2.20;1.40;;;;;;;7.16;100.00;93080.44;2114278;28;20114;-81
2024/04/06 02:39:50;;;;;;;3.33;1.50;;;;;;;7.31;100.00;93089.78;2112280;28;20050;-81
2024/04/06 02:40:51;;;;;;;4.75;1.98;;;;;;;7.24;100.00;93081.91;2125863;27;20467;-82
2024/04/06 02:41:52;;;;;;;2.13;1.60;;;;;;;7.21;100.00;93090.66;2116655;28;20435;-82
2024/04/06 02:42:53;;;;;;;1.33;1.23;;;;;;;7.24;100.00;93089.88;2120907;27;20463;-80
2024/04/06 02:43:54;;;;;;;3.53;1.40;;;;;;;7.30;100.00;93092.84;2137220;27;20022;-80
2024/04/06 02:44:56;;;;;;;2.80;1.30;;;;;;;7.19;100.00;93098.25;2124808;27;20038;-81
2024/04/06 02:45:56;;;;;;;2.60;1.60;;;;;;;7.23;100.00;93098.22;2115702;28;20043;-83
2024/04/06 02:46:57;;;;;;;3.10;1.50;;;;;;;7.18;100.00;93098.66;2121025;27;20102;-81
2024/04/06 02:47:58;;;;;;;1.20;1.10;;;;;;;7.15;100.00;93091.47;2115208;27;20070;-81
2024/04/06 02:48:59;;;;;;;2.45;1.40;;;;;;;7.18;100.00;93090.69;2112422;28;20027;-81
2024/04/06 02:50:00;;;;;;;3.67;1.15;;;;;;;7.28;100.00;93097.78;2117716;28;20523;-81
2024/04/06 02:51:02;;;;;;;3.92;1.40;;;;;;;7.22;100.00;93097.47;2106553;28;20032;-81
2024/04/06 02:52:04;;;;;;;3.30;1.38;;;;;;;7.15;100.00;93096.78;2112704;28;20027;-81
2024/04/06 02:53:05;;;;;;;1.55;1.45;;;;;;;7.14;100.00;93104.00;2103621;28;20020;-81
2024/04/06 02:54:06;;;;;;;2.22;1.23;;;;;;;7.07;100.00;93096.09;2098565;28;20102;-81
2024/04/06 02:55:07;;;;;;;2.35;1.40;;;;;;;7.05;100.00;93098.38;2112468;28;20028;-81
2024/04/06 02:56:08;;;;;;;2.20;1.30;;;;;;;6.99;100.00;93106.03;2117686;27;20023;-81
2024/04/06 02:57:09;;;;;;;3.03;1.42;;;;;;;7.05;100.00;93104.44;2119403;27;20391;-83
2024/04/06 02:58:10;;;;;;;2.97;1.30;;;;;;;6.97;100.00;93100.34;2115781;28;20027;-82
2024/04/06 02:59:17;;;;;;;4.93;1.38;;;;;;;6.80;100.00;93099.34;2105734;28;20027;-83
2024/04/06 03:00:18;;;;;;;2.55;1.30;;;;;;;6.79;100.00;93107.69;2110521;28;20080;-83
2024/04/06 03:01:19;;;;;;;2.72;1.40;;;;;;;6.70;100.00;93094.09;2109200;28;20083;-81
2024/04/06 03:02:20;;;;;;;1.40;1.30;;;;;;;6.74;100.00;93100.16;2123493;27;20026;-81
2024/04/06 03:03:21;;;;;;;4.78;1.60;;;;;;;6.75;100.00;93091.03;2130249;27;20030;-80
2024/04/06 03:04:22;;;;;;;4.15;1.50;;;;;;;6.71;100.00;93098.28;2110796;28;20114;-80
2024/04/06 03:05:23;;;;;;;1.88;1.40;;;;;;;6.92;100.00;93095.44;2099796;28;20115;-80
2024/04/06 03:06:24;;;;;;;1.63;1.17;;;;;;;6.91;100.00;93098.50;2109232;28;20020;-80
2024/04/06 03:07:26;;;;;;;2.65;1.60;;;;;;;6.98;100.00;93093.91;2115917;28;20049;-83
2024/04/06 03:08:27;;;;;;;5.22;1.60;;;;;;;6.91;100.00;93096.59;2104777;28;20032;-81
2024/04/06 03:09:29;;;;;;;1.48;1.38;;;;;;;6.93;100.00;93091.63;2120042;27;20043;-81
2024/04/06 03:10:30;;;;;;;3.47;1.38;;;;;;;6.85;100.00;93094.75;2133166;27;20551;-82
2024/04/06 03:11:31;;;;;;;2.85;1.58;;;;;;;6.77;100.00;93091.41;2121031;28;20019;-82
2024/04/06 03:12:32;;;;;;;3.80;1.45;;;;;;;6.74;100.00;93100.16;2107929;28;20020;-81
2024/04/06 03:13:33;;;;;;;1.75;1.30;;;;;;;6.54;100.00;93098.03;2104665;28;20024;-80
2024/04/06 03:14:34;;;;;;;3.17;1.60;;;;;;;6.68;100.00;93094.50;2115971;28;20049;-81
2024/04/06 03:15:35;;;;;;;2.75;1.13;;;;;;;6.59;100.00;93104.06;2125656;27;20084;-81
2024/04/06 03:16:36;;;;;;;1.42;1.33;;;;;;;6.65;100.00;93099.84;2129417;27;20027;-82
2024/04/06 03:17:37;;;;;;;1.52;1.40;;;;;;;6.63;100.00;93099.47;2122274;27;20482;-81
2024/04/06 03:18:38;;;;;;;3.58;1.42;;;;;;;6.57;100.00;93097.22;2109702;28;20030;-80
2024/04/06 03:19:46;;;;;;;3.17;1.45;;;;;;;6.57;100.00;93107.84;2118652;28;20047;-82
2024/04/06 03:20:47;;;;;;;5.30;1.40;;;;;;;6.58;100.00;93108.59;2109119;28;20389;-82
2024/04/06 03:21:48;;;;;;;1.40;1.30;;;;;;;6.63;100.00;93107.44;2099482;28;20028;-81
2024/04/06 03:23:01;;;;;;;3.55;1.42;;;;;;;6.48;100.00;93104.88;2101228;28;20020;-82
2024/04/06 03:24:02;;;;;;;3.63;1.50;;;;;;;6.50;100.00;93115.13;2106622;28;20020;-82
2024/04/06 03:25:04;;;;;;;2.55;1.20;;;;;;;6.39;100.00;93111.78;2114342;27;20047;-84
2024/04/06 03:26:07;;;;;;;3.55;1.48;;;;;;;6.42;100.00;93113.66;2126269;27;20049;-83
2024/04/06 03:27:09;;;;;;;3.10;1.65;;;;;;;6.41;100.00;93115.56;2120199;28;20043;-82
2024/04/06 03:28:09;;;;;;;4.35;1.38;;;;;;;6.44;100.00;93114.75;2119727;27;20033;-80
2024/04/06 03:29:11;;;;;;;2.80;1.30;;;;;;;6.40;100.00;93110.63;2120516;28;20031;-82
2024/04/06 03:30:13;;;;;;;2.17;1.40;;;;;;;6.39;100.00;93117.84;2112295;28;20544;-81
2024/04/06 03:31:15;;;;;;;1.90;1.30;;;;;;;6.44;100.00;93117.41;2111637;28;20110;-81
2024/04/06 03:32:15;;;;;;;2.08;1.50;;;;;;;6.34;100.00;93118.25;2112167;28;20047;-81
2024/04/06 03:33:16;;;;;;;1.60;1.50;;;;;;;6.35;100.00;93117.09;2120318;27;20050;-80
2024/04/06 03:34:17;;;;;;;2.50;1.50;;;;;;;6.40;100.00;93116.69;2113560;28;20031;-80
2024/04/06 03:35:19;;;;;;;2.78;1.20;;;;;;;6.39;100.00;93117.09;2120677;27;20026;-82
2024/04/06 03:36:20;;;;;;;2.70;1.83;;;;;;;6.35;100.00;93119.75;2103670;28;20721;-81
2024/04/06 03:37:21;;;;;;;2.78;1.55;;;;;;;6.36;100.00;93120.50;2114568;28;20012;-83
2024/04/06 03:38:22;;;;;;;1.73;1.55;;;;;;;6.37;100.00;93108.75;2115286;28;20032;-81
2024/04/06 03:39:23;;;;;;;2.40;1.38;;;;;;;6.32;100.00;93117.88;2105020;28;20019;-82
2024/04/06 03:40:24;;;;;;;2.40;1.40;;;;;;;6.39;100.00;93114.44;2109596;28;20134;-80
2024/04/06 03:41:25;;;;;;;2.78;1.48;;;;;;;6.34;100.00;93118.25;2106487;28;20115;-80
2024/04/06 03:42:26;;;;;;;1.88;1.40;;;;;;;6.34;100.00;93115.59;2108070;28;20035;-81
2024/04/06 03:43:27;;;;;;;1.33;1.23;;;;;;;6.44;100.00;93109.47;2102865;27;20020;-81
2024/04/06 03:44:28;;;;;;;2.53;1.42;;;;;;;6.37;100.00;93114.81;2115722;27;20055;-83
2024/04/06 03:45:29;;;;;;;2.20;1.45;;;;;;;6.33;100.00;93108.78;2111490;28;20027;-80
2024/04/06 03:46:30;;;;;;;1.98;1.48;;;;;;;6.33;100.00;93111.44;2110523;28;20080;-81
2024/04/06 03:47:32;;;;;;;1.52;1.35;;;;;;;6.27;100.00;93116.38;2120520;27;20019;-84
2024/04/06 03:48:33;;;;;;;2.00;1.30;;;;;;;6.30;100.00;93112.97;2132316;27;20018;-81
2024/04/06 03:49:34;;;;;;;3.33;1.55;;;;;;;6.22;100.00;93110.72;2125699;27;20029;-80
2024/04/06 03:50:35;;;;;;;1.88;1.30;;;;;;;6.28;100.00;93119.81;2108006;28;20027;-80
2024/04/06 03:51:36;;;;;;;5.15;1.33;;;;;;;6.12;100.00;93117.59;2106622;28;20054;-82
2024/04/06 03:52:36;;;;;;;3.58;1.40;;;;;;;6.18;100.00;93116.03;2113569;27;20037;-82
2024/04/06 03:53:41;;;;;;;2.08;1.38;;;;;;;6.12;100.00;93108.91;2109294;28;20089;-80
2024/04/06 03:54:42;;;;;;;2.42;1.48;;;;;;;6.14;100.00;93115.31;2117924;27;20023;-81
2024/04/06 03:55:43;;;;;;;2.20;1.30;;;;;;;6.17;100.00;93119.09;2108787;28;20119;-81
2024/04/06 03:56:44;;;;;;;2.25;1.52;;;;;;;6.24;100.00;93114.50;2098755;28;20183;-81
2024/04/06 03:57:44;;;;;;;4.43;1.50;;;;;;;6.28;100.00;93117.16;2092038;28;20033;-80
2024/04/06 03:58:45;;;;;;;3.47;1.35;;;;;;;6.22;100.00;93111.47;2089593;28;20020;-81
2024/04/06 03:59:46;;;;;;;3.70;1.88;;;;;;;6.08;100.00;93111.56;2098352;28;20025;-84
2024/04/06 04:00:48;;;;;;;1.88;1.52;;;;;;;6.11;100.00;93110.78;2090691;28;20104;-82
2024/04/06 04:01:51;;;;;;;1.40;1.23;;;;;;;6.07;100.00;93106.66;2113149;28;20102;-80
2024/04/06 04:02:52;;;;;;;2.47;1.60;;;;;;;6.09;100.00;93109.66;2106585;28;20020;-82
2024/04/06 04:03:53;;;;;;;2.75;1.55;;;;;;;6.07;100.00;93111.97;2097580;28;20061;-83
2024/04/06 04:04:54;;;;;;;2.42;1.42;;;;;;;6.13;100.00;93107.75;2089604;28;20120;-81
2024/04/06 04:05:55;;;;;;;3.38;1.42;;;;;;;6.18;100.00;93116.03;2098055;28;20536;-83
2024/04/06 04:06:56;;;;;;;3.03;1.48;;;;;;;6.03;100.00;93112.72;2106846;28;20032;-83
2024/04/06 04:07:57;;;;;;;1.35;1.25;;;;;;;5.90;100.00;93108.22;2108672;28;20473;-81
2024/04/06 04:08:58;;;;;;;2.47;1.38;;;;;;;6.02;100.00;93113.13;2105682;28;20107;-80
2024/04/06 04:10:01;;;;;;;2.25;1.45;;;;;;;6.16;100.00;93104.31;2114687;27;20065;-81
2024/04/06 04:11:03;;;;;;;1.80;1.38;;;;;;;6.28;100.00;93106.53;2123718;27;20088;-82
2024/04/06 04:12:05;;;;;;;3.42;1.58;;;;;;;6.22;100.00;93108.81;2114181;28;20035;-81
2024/04/06 04:13:09;;;;;;;2.65;1.30;;;;;;;6.14;100.00;93106.59;2100722;28;20157;-83
2024/04/06 04:14:10;;;;;;;2.42;1.35;;;;;;;6.11;100.00;93108.13;2108708;28;20027;-82
2024/04/06 04:15:11;;;;;;;1.88;1.35;;;;;;;6.11;100.00;93112.69;2105942;28;20361;-83
2024/04/06 04:16:12;;;;;;;1.65;1.13;;;;;;;6.12;100.00;93111.53;2105997;28;20027;-83
2024/04/06 04:17:13;;;;;;;3.47;1.30;;;;;;;6.19;100.00;93116.81;2109955;27;20015;-83
2024/04/06 04:18:14;;;;;;;4.50;1.83;;;;;;;6.15;100.00;93122.16;2098009;28;20107;-84
2024/04/06 04:19:15;;;;;;;4.80;1.48;;;;;;;6.13;100.00;93116.47;2102375;28;20485;-80
2024/04/06 04:20:16;;;;;;;2.72;1.60;;;;;;;6.07;100.00;93118.00;2109033;28;20027;-82
2024/04/06 04:21:17;;;;;;;2.03;1.45;;;;;;;5.95;100.00;93111.25;2114502;28;20062;-80
2024/04/06 04:22:18;;;;;;;4.75;1.50;;;;;;;5.98;100.00;93117.69;2117616;27;20023;-83
2024/04/06 04:23:19;;;;;;;2.88;1.50;;;;;;;6.01;100.00;93120.31;2110049;28;20674;-80
2024/04/06 04:24:20;;;;;;;2.10;1.20;;;;;;;6.01;100.00;93119.53;2101679;28;20482;-81
2024/04/06 04:25:21;;;;;;;1.70;1.40;;;;;;;6.04;100.00;93119.53;2114021;28;20024;-83
2024/04/06 04:26:22;;;;;;;1.50;1.30;;;;;;;5.99;100.00;93121.84;2098127;28;20036;-82
2024/04/06 04:27:24;;;;;;;2.97;1.40;;;;;;;6.00;100.00;93124.09;2105748;28;20465;-81
2024/04/06 04:28:25;;;;;;;1.55;1.30;;;;;;;6.11;100.00;93121.41;2114042;27;20020;-80
2024/04/06 04:29:26;;;;;;;2.78;1.30;;;;;;;6.05;100.00;93121.03;2125793;27;20027;-83
2024/04/06 04:30:27;;;;;;;1.30;1.10;;;;;;;6.04;100.00;93119.53;2119744;27;20019;-79
2024/04/06 04:31:29;;;;;;;2.17;1.33;;;;;;;6.05;100.00;93123.69;2124988;27;20019;-82
2024/04/06 04:32:30;;;;;;;2.78;1.50;;;;;;;6.00;100.00;93120.69;2123575;27;20019;-81
2024/04/06 04:33:31;;;;;;;6.10;1.38;;;;;;;5.89;100.00;93118.06;2111817;27;20020;-81
2024/04/06 04:34:32;;;;;;;2.15;1.30;;;;;;;5.84;100.00;93126.44;2101415;28;20035;-81
2024/04/06 04:35:33;;;;;;;2.45;1.30;;;;;;;6.02;100.00;93127.13;2110240;28;20027;-80
2024/04/06 04:36:35;;;;;;;1.75;1.38;;;;;;;6.18;100.00;93131.22;2112919;28;20418;-84
2024/04/06 04:37:36;;;;;;;3.13;1.70;;;;;;;6.12;100.00;93135.44;2108155;28;20020;-83
2024/04/06 04:38:37;;;;;;;4.10;1.38;;;;;;;6.04;100.00;93130.16;2112436;28;20475;-80
2024/04/06 04:39:38;;;;;;;1.85;1.60;;;;;;;5.97;100.00;93134.72;2114052;28;20027;-81
2024/04/06 04:40:39;;;;;;;2.15;1.30;;;;;;;5.96;100.00;93139.28;2119034;27;20031;-81
2024/04/06 04:41:41;;;;;;;3.80;1.42;;;;;;;6.06;100.00;93145.69;2122487;27;20058;-80
2024/04/06 04:42:42;;;;;;;2.92;1.70;;;;;;;5.98;100.00;93130.94;2114540;28;20027;-81
2024/04/06 04:43:42;;;;;;;2.83;1.55;;;;;;;5.97;100.00;93142.69;2094604;28;20021;-82
2024/04/06 04:44:43;;;;;;;1.67;1.48;;;;;;;5.92;100.00;93145.72;2109250;28;20024;-81
2024/04/06 04:45:44;;;;;;;2.72;1.45;;;;;;;5.85;100.00;93146.50;2103191;28;20028;-85
2024/04/06 04:46:45;;;;;;;2.75;1.52;;;;;;;5.83;100.00;93140.81;2103765;28;20139;-83
2024/04/06 04:47:46;;;;;;;3.95;1.50;;;;;;;5.69;100.00;93141.63;2110267;28;20061;-83
2024/04/06 04:48:51;;;;;;;1.58;1.48;;;;;;;5.70;100.00;93147.66;2114159;28;20034;-82
2024/04/06 04:49:52;;;;;;;5.03;1.92;;;;;;;5.88;100.00;93140.41;2104286;28;20032;-81